createdAt,value
2022-07-31T00:03:10.022Z,17.14
2022-07-31T00:08:11.733Z,17.31
2022-07-31T00:13:13.760Z,17.28
2022-07-31T00:18:15.694Z,17.18
2022-07-31T00:23:19.041Z,17.25
2022-07-31T00:28:21.275Z,17.14
2022-07-31T00:33:23.001Z,16.98
2022-07-31T00:38:26.930Z,17.00
2022-07-31T00:43:30.824Z,16.95
2022-07-31T00:48:33.643Z,16.82
2022-07-31T00:53:35.797Z,16.82
2022-07-31T00:58:37.519Z,16.77
2022-07-31T01:03:39.430Z,16.91
2022-07-31T01:08:41.462Z,16.70
2022-07-31T01:13:55.995Z,16.51
2022-07-31T01:18:58.830Z,16.52
2022-07-31T01:24:17.856Z,16.17
2022-07-31T01:29:56.583Z,16.31
2022-07-31T01:35:05.288Z,16.38
2022-07-31T01:40:15.304Z,16.09
2022-07-31T01:45:21.056Z,16.03
2022-07-31T01:50:43.570Z,16.03
2022-07-31T01:56:02.734Z,16.24
2022-07-31T02:01:14.129Z,16.31
2022-07-31T02:06:18.970Z,16.15
2022-07-31T02:11:22.048Z,16.11
2022-07-31T02:16:26.300Z,16.01
2022-07-31T02:21:37.594Z,15.92
2022-07-31T02:26:40.510Z,15.85
2022-07-31T02:31:44.392Z,15.75
2022-07-31T02:36:47.282Z,15.76
2022-07-31T02:41:49.153Z,15.77
2022-07-31T02:46:51.780Z,15.60
2022-07-31T02:51:53.700Z,15.65
2022-07-31T02:56:56.100Z,15.58
2022-07-31T03:01:58.918Z,15.63
2022-07-31T03:07:02.182Z,15.64
2022-07-31T03:12:04.990Z,15.61
2022-07-31T03:17:08.135Z,15.65
2022-07-31T03:22:13.653Z,15.66
2022-07-31T03:27:17.170Z,15.71
2022-07-31T03:32:19.526Z,15.87
2022-07-31T03:37:21.605Z,15.97
2022-07-31T03:42:24.348Z,16.01
2022-07-31T03:47:26.193Z,16.01
2022-07-31T03:52:29.654Z,16.01
2022-07-31T03:57:34.083Z,15.98
2022-07-31T04:02:36.584Z,16.01
2022-07-31T04:08:04.786Z,15.99
2022-07-31T04:13:07.009Z,15.89
2022-07-31T04:18:08.854Z,15.89
2022-07-31T04:23:16.633Z,15.85
2022-07-31T04:28:37.616Z,16.00
2022-07-31T04:33:47.357Z,16.04
2022-07-31T04:38:50.910Z,15.98
2022-07-31T04:43:53.058Z,16.11
2022-07-31T04:48:55.831Z,16.24
2022-07-31T04:54:01.194Z,16.25
2022-07-31T04:59:09.861Z,16.33
2022-07-31T05:04:15.414Z,16.65
2022-07-31T05:09:19.606Z,16.88
2022-07-31T05:14:27.808Z,16.94
2022-07-31T05:19:30.370Z,17.11
2022-07-31T05:24:58.459Z,17.25
2022-07-31T05:30:00.562Z,17.40
2022-07-31T05:35:02.302Z,17.70
2022-07-31T05:40:04.470Z,18.06
2022-07-31T05:45:24.659Z,18.32
2022-07-31T05:50:26.608Z,18.53
2022-07-31T05:55:28.351Z,18.78
2022-07-31T06:00:50.246Z,19.01
2022-07-31T06:05:52.100Z,19.13
2022-07-31T06:10:54.425Z,19.27
2022-07-31T06:15:56.339Z,19.45
2022-07-31T06:20:58.025Z,19.55
2022-07-31T06:26:00.552Z,19.63
2022-07-31T06:31:02.429Z,19.72
2022-07-31T06:36:04.274Z,19.78
2022-07-31T06:41:39.686Z,19.87
2022-07-31T06:47:00.312Z,19.88
2022-07-31T06:52:18.114Z,19.92
2022-07-31T06:57:20.375Z,19.98
2022-07-31T07:02:22.196Z,20.05
2022-07-31T07:07:24.120Z,20.16
2022-07-31T07:12:34.796Z,20.33
2022-07-31T07:17:36.799Z,20.47
2022-07-31T07:22:44.130Z,20.55
2022-07-31T07:27:49.155Z,20.69
2022-07-31T07:32:51.063Z,20.74
2022-07-31T07:37:53.345Z,20.87
2022-07-31T07:42:58.799Z,21.05
2022-07-31T07:48:06.772Z,21.25
2022-07-31T07:53:25.084Z,21.32
2022-07-31T07:58:48.996Z,21.41
2022-07-31T08:04:10.802Z,21.59
2022-07-31T08:09:12.764Z,21.68
2022-07-31T08:14:40.068Z,21.81
2022-07-31T08:20:01.861Z,21.93
2022-07-31T08:25:05.763Z,22.05
2022-07-31T08:30:08.953Z,22.17
2022-07-31T08:35:10.725Z,22.36
2022-07-31T08:40:13.527Z,22.50
2022-07-31T08:45:15.391Z,22.72
2022-07-31T08:50:44.132Z,22.95
2022-07-31T08:55:57.813Z,23.17
2022-07-31T09:01:04.622Z,23.37
2022-07-31T09:06:06.715Z,23.60
2022-07-31T09:11:12.332Z,23.88
2022-07-31T09:16:24.369Z,24.15
2022-07-31T09:21:41.606Z,24.25
2022-07-31T09:26:44.377Z,24.42
2022-07-31T09:31:46.859Z,24.71
2022-07-31T09:37:25.650Z,24.94
2022-07-31T09:42:59.762Z,25.09
2022-07-31T09:48:15.279Z,25.28
2022-07-31T09:53:22.013Z,25.45
2022-07-31T09:58:28.064Z,25.57
2022-07-31T10:03:29.833Z,25.74
2022-07-31T10:08:37.043Z,25.76
2022-07-31T10:14:01.229Z,25.95
2022-07-31T10:19:11.330Z,26.11
2022-07-31T10:24:40.374Z,26.28
2022-07-31T10:29:42.561Z,26.40
2022-07-31T10:34:45.510Z,26.49
2022-07-31T10:40:08.743Z,26.69
2022-07-31T10:45:17.831Z,26.86
2022-07-31T10:50:36.975Z,27.10
2022-07-31T10:55:42.779Z,27.13
2022-07-31T11:01:09.718Z,27.28
2022-07-31T11:06:11.824Z,27.33
2022-07-31T11:11:39.523Z,27.40
2022-07-31T11:17:00.370Z,27.77
2022-07-31T11:22:30.611Z,28.08
2022-07-31T11:27:34.771Z,28.11
2022-07-31T11:32:36.469Z,27.70
2022-07-31T11:37:46.799Z,27.52
2022-07-31T11:43:24.842Z,27.30
2022-07-31T11:48:25.439Z,27.06
2022-07-31T11:53:29.114Z,26.84
2022-07-31T11:58:30.853Z,26.88
2022-07-31T12:03:36.682Z,27.01
2022-07-31T12:08:39.984Z,26.91
2022-07-31T12:13:46.610Z,27.02
2022-07-31T12:18:59.276Z,27.06
2022-07-31T12:24:01.487Z,27.20
2022-07-31T12:29:11.415Z,27.27
2022-07-31T12:34:25.065Z,27.34
2022-07-31T12:39:47.544Z,27.51
2022-07-31T12:44:50.280Z,27.29
2022-07-31T12:49:52.904Z,27.24
2022-07-31T12:54:55.273Z,27.30
2022-07-31T12:59:57.109Z,27.40
2022-07-31T13:04:58.857Z,28.02
2022-07-31T13:10:19.068Z,28.33
2022-07-31T13:15:29.600Z,28.48
2022-07-31T13:20:32.786Z,28.14
2022-07-31T13:25:34.541Z,28.11
2022-07-31T13:30:36.317Z,28.34
2022-07-31T13:35:38.051Z,28.61
2022-07-31T13:40:58.653Z,29.02
2022-07-31T13:46:00.737Z,28.41
2022-07-31T13:51:03.077Z,28.21
2022-07-31T13:56:04.859Z,28.65
2022-07-31T14:01:06.796Z,28.96
2022-07-31T14:06:08.801Z,29.07
2022-07-31T14:11:22.404Z,29.22
2022-07-31T14:16:24.295Z,28.92
2022-07-31T14:21:26.085Z,29.17
2022-07-31T14:26:28.320Z,29.45
2022-07-31T14:31:30.108Z,29.21
2022-07-31T14:36:31.787Z,28.68
2022-07-31T14:41:34.322Z,29.08
2022-07-31T14:46:36.182Z,29.08
2022-07-31T14:51:37.922Z,28.85
2022-07-31T14:57:00.237Z,29.19
2022-07-31T15:02:01.571Z,29.63
2022-07-31T15:07:32.473Z,29.42
2022-07-31T15:12:25.425Z,29.66
2022-07-31T15:17:27.381Z,30.06
2022-07-31T15:22:29.064Z,30.09
2022-07-31T15:27:30.763Z,29.55
2022-07-31T15:32:32.507Z,29.51
2022-07-31T15:37:39.381Z,29.40
2022-07-31T15:42:42.645Z,28.86
2022-07-31T15:47:45.818Z,28.80
2022-07-31T15:52:48.636Z,28.80
2022-07-31T15:57:50.450Z,28.76
2022-07-31T16:02:52.487Z,28.72
2022-07-31T16:08:32.410Z,28.69
2022-07-31T16:13:16.146Z,28.43
2022-07-31T16:18:18.764Z,28.52
2022-07-31T16:23:20.570Z,28.45
2022-07-31T16:28:22.313Z,28.12
2022-07-31T16:33:24.094Z,28.06
2022-07-31T16:38:26.076Z,28.25
2022-07-31T16:43:49.828Z,28.41
2022-07-31T16:48:49.505Z,28.51
2022-07-31T16:54:13.514Z,28.28
2022-07-31T16:59:13.277Z,28.09
2022-07-31T17:04:14.950Z,28.01
2022-07-31T17:09:18.542Z,28.54
2022-07-31T17:14:23.927Z,28.95
2022-07-31T17:19:42.492Z,29.13
2022-07-31T17:24:51.670Z,29.10
2022-07-31T17:29:53.766Z,29.07
2022-07-31T17:34:55.878Z,29.16
2022-07-31T17:39:58.157Z,29.14
2022-07-31T17:45:01.894Z,28.81
2022-07-31T17:50:04.329Z,28.55
2022-07-31T17:55:07.974Z,28.57
2022-07-31T18:00:10.088Z,28.42
2022-07-31T18:05:11.738Z,28.29
2022-07-31T18:10:13.574Z,28.16
2022-07-31T18:15:15.559Z,28.06
2022-07-31T18:20:19.320Z,27.92
2022-07-31T18:25:20.996Z,27.82
2022-07-31T18:30:23.666Z,27.56
2022-07-31T18:35:32.099Z,27.01
2022-07-31T18:40:33.788Z,26.67
2022-07-31T18:45:36.037Z,26.08
2022-07-31T18:50:58.608Z,25.63
2022-07-31T18:56:05.065Z,25.26
2022-07-31T19:01:06.752Z,25.02
2022-07-31T19:06:08.678Z,24.79
2022-07-31T19:11:11.722Z,24.71
2022-07-31T19:16:13.553Z,24.47
2022-07-31T19:21:41.681Z,24.26
2022-07-31T19:26:41.055Z,24.22
2022-07-31T19:31:42.741Z,24.07
2022-07-31T19:36:44.483Z,23.96
2022-07-31T19:42:11.695Z,23.85
2022-07-31T19:47:08.027Z,23.69
2022-07-31T19:52:11.194Z,23.41
2022-07-31T19:57:12.910Z,23.23
2022-07-31T20:02:16.949Z,23.14
2022-07-31T20:07:18.880Z,23.16
2022-07-31T20:12:20.755Z,23.20
2022-07-31T20:17:22.440Z,23.15
2022-07-31T20:22:24.245Z,23.15
2022-07-31T20:27:26.159Z,23.22
2022-07-31T20:32:27.848Z,23.31
2022-07-31T20:37:30.581Z,23.31
2022-07-31T20:42:32.269Z,23.35
2022-07-31T20:47:33.872Z,23.36
2022-07-31T20:52:35.582Z,23.21
2022-07-31T20:57:37.174Z,22.95
2022-07-31T21:02:39.252Z,22.93
2022-07-31T21:07:40.966Z,22.98
2022-07-31T21:12:42.602Z,23.06
2022-07-31T21:17:44.342Z,23.22
2022-07-31T21:22:46.059Z,23.42
2022-07-31T21:27:47.917Z,23.69
2022-07-31T21:32:49.985Z,23.95
2022-07-31T21:37:54.754Z,24.15
2022-07-31T21:42:58.859Z,24.32
2022-07-31T21:48:09.105Z,24.46
2022-07-31T21:53:11.340Z,24.60
2022-07-31T21:58:13.211Z,24.68
2022-07-31T22:03:14.939Z,24.73
2022-07-31T22:08:16.978Z,24.80
2022-07-31T22:13:19.729Z,24.83
2022-07-31T22:18:21.870Z,24.87
2022-07-31T22:23:23.888Z,24.88
2022-07-31T22:28:27.121Z,24.85
2022-07-31T22:33:28.892Z,24.79
2022-07-31T22:38:30.859Z,24.72
2022-07-31T22:44:12.926Z,24.72
2022-07-31T22:48:55.885Z,24.68
2022-07-31T22:53:57.638Z,24.66
2022-07-31T22:58:59.301Z,24.64
2022-07-31T23:04:01.072Z,24.52
2022-07-31T23:09:03.082Z,24.37
2022-07-31T23:14:04.761Z,24.24
2022-07-31T23:19:06.490Z,24.05
2022-07-31T23:24:08.852Z,23.93
2022-07-31T23:29:11.179Z,23.77
2022-07-31T23:34:15.817Z,23.59
2022-07-31T23:39:18.480Z,23.48
2022-07-31T23:44:24.952Z,23.34
2022-07-31T23:49:27.016Z,23.27
2022-07-31T23:54:28.817Z,23.30
2022-07-31T23:59:30.556Z,23.19
